sensor_id;sensor_type;location;lat;lon;timestamp;temperature;humidity
39751;DHT22;37579;51.074;17.004;2022-12-29T00:00:50;24.00;57.70
39751;DHT22;37579;51.074;17.004;2022-12-29T00:03:16;24.00;57.50
39751;DHT22;37579;51.074;17.004;2022-12-29T00:05:42;24.00;57.60
39751;DHT22;37579;51.074;17.004;2022-12-29T00:08:08;24.00;57.50
39751;DHT22;37579;51.074;17.004;2022-12-29T00:10:34;24.00;57.60
39751;DHT22;37579;51.074;17.004;2022-12-29T00:12:59;23.90;57.60
39751;DHT22;37579;51.074;17.004;2022-12-29T00:15:44;23.90;57.60
39751;DHT22;37579;51.074;17.004;2022-12-29T00:18:09;23.90;57.50
39751;DHT22;37579;51.074;17.004;2022-12-29T00:20:36;23.90;57.60
39751;DHT22;37579;51.074;17.004;2022-12-29T00:23:21;23.90;57.60
39751;DHT22;37579;51.074;17.004;2022-12-29T00:26:13;23.90;57.70
39751;DHT22;37579;51.074;17.004;2022-12-29T00:28:59;23.90;57.60
39751;DHT22;37579;51.074;17.004;2022-12-29T00:31:43;23.90;57.70
39751;DHT22;37579;51.074;17.004;2022-12-29T00:34:28;23.80;58.20
39751;DHT22;37579;51.074;17.004;2022-12-29T00:37:12;23.80;57.60
39751;DHT22;37579;51.074;17.004;2022-12-29T00:39:38;23.90;57.70
39751;DHT22;37579;51.074;17.004;2022-12-29T00:42:24;23.90;57.50
39751;DHT22;37579;51.074;17.004;2022-12-29T00:45:08;23.80;57.60
39751;DHT22;37579;51.074;17.004;2022-12-29T00:47:34;23.80;57.60
39751;DHT22;37579;51.074;17.004;2022-12-29T00:49:59;23.80;57.70
39751;DHT22;37579;51.074;17.004;2022-12-29T00:52:26;23.80;57.70
39751;DHT22;37579;51.074;17.004;2022-12-29T00:54:52;23.80;57.70
39751;DHT22;37579;51.074;17.004;2022-12-29T00:57:18;23.70;57.60
39751;DHT22;37579;51.074;17.004;2022-12-29T00:59:44;23.70;57.70
39751;DHT22;37579;51.074;17.004;2022-12-29T01:02:11;23.70;57.60
39751;DHT22;37579;51.074;17.004;2022-12-29T01:04:37;23.70;57.60
39751;DHT22;37579;51.074;17.004;2022-12-29T01:07:03;23.70;57.60
39751;DHT22;37579;51.074;17.004;2022-12-29T01:09:29;23.70;57.70
39751;DHT22;37579;51.074;17.004;2022-12-29T01:12:15;23.70;57.70
39751;DHT22;37579;51.074;17.004;2022-12-29T01:14:40;23.70;57.80
39751;DHT22;37579;51.074;17.004;2022-12-29T01:17:06;23.70;57.70
39751;DHT22;37579;51.074;17.004;2022-12-29T01:19:32;23.70;57.80
39751;DHT22;37579;51.074;17.004;2022-12-29T01:21:58;23.70;57.80
39751;DHT22;37579;51.074;17.004;2022-12-29T01:24:24;23.70;57.80
39751;DHT22;37579;51.074;17.004;2022-12-29T01:26:51;23.70;57.80
39751;DHT22;37579;51.074;17.004;2022-12-29T01:29:17;23.70;57.70
39751;DHT22;37579;51.074;17.004;2022-12-29T01:31:45;23.70;57.70
39751;DHT22;37579;51.074;17.004;2022-12-29T01:34:11;23.70;57.70
39751;DHT22;37579;51.074;17.004;2022-12-29T01:36:38;23.60;57.80
39751;DHT22;37579;51.074;17.004;2022-12-29T01:39:04;23.60;57.70
39751;DHT22;37579;51.074;17.004;2022-12-29T01:41:30;23.60;57.70
39751;DHT22;37579;51.074;17.004;2022-12-29T01:43:58;23.60;57.60
39751;DHT22;37579;51.074;17.004;2022-12-29T01:46:39;23.60;57.60
39751;DHT22;37579;51.074;17.004;2022-12-29T01:49:19;23.60;57.70
39751;DHT22;37579;51.074;17.004;2022-12-29T01:51:45;23.60;57.60
39751;DHT22;37579;51.074;17.004;2022-12-29T01:54:19;23.60;57.70
39751;DHT22;37579;51.074;17.004;2022-12-29T01:56:47;23.60;57.70
39751;DHT22;37579;51.074;17.004;2022-12-29T01:59:19;23.60;57.60
39751;DHT22;37579;51.074;17.004;2022-12-29T02:01:46;23.60;57.70
39751;DHT22;37579;51.074;17.004;2022-12-29T02:04:13;23.60;57.60
39751;DHT22;37579;51.074;17.004;2022-12-29T02:06:48;23.60;57.60
39751;DHT22;37579;51.074;17.004;2022-12-29T02:09:16;23.60;57.60
39751;DHT22;37579;51.074;17.004;2022-12-29T02:11:42;23.60;57.50
39751;DHT22;37579;51.074;17.004;2022-12-29T02:14:12;23.60;57.60
39751;DHT22;37579;51.074;17.004;2022-12-29T02:19:44;23.60;57.60
39751;DHT22;37579;51.074;17.004;2022-12-29T02:25:16;23.60;57.40
39751;DHT22;37579;51.074;17.004;2022-12-29T02:27:50;23.60;57.50
39751;DHT22;37579;51.074;17.004;2022-12-29T02:38:38;23.50;57.60
39751;DHT22;37579;51.074;17.004;2022-12-29T02:41:22;23.60;57.60
39751;DHT22;37579;51.074;17.004;2022-12-29T02:46:36;23.50;57.50
39751;DHT22;37579;51.074;17.004;2022-12-29T02:49:14;23.50;57.40
39751;DHT22;37579;51.074;17.004;2022-12-29T02:54:17;23.50;57.40
39751;DHT22;37579;51.074;17.004;2022-12-29T02:57:02;23.50;57.40
39751;DHT22;37579;51.074;17.004;2022-12-29T02:59:29;23.50;57.50
39751;DHT22;37579;51.074;17.004;2022-12-29T03:10:35;23.50;57.50
39751;DHT22;37579;51.074;17.004;2022-12-29T03:16:07;23.50;57.40
39751;DHT22;37579;51.074;17.004;2022-12-29T03:23:41;23.50;57.80
39751;DHT22;37579;51.074;17.004;2022-12-29T03:26:11;23.50;57.70
39751;DHT22;37579;51.074;17.004;2022-12-29T03:28:44;23.50;57.80
39751;DHT22;37579;51.074;17.004;2022-12-29T03:31:16;23.50;57.90
39751;DHT22;37579;51.074;17.004;2022-12-29T03:33:43;23.50;57.80
39751;DHT22;37579;51.074;17.004;2022-12-29T03:36:13;23.50;57.80
39751;DHT22;37579;51.074;17.004;2022-12-29T03:38:55;23.50;57.90
39751;DHT22;37579;51.074;17.004;2022-12-29T03:41:26;23.50;57.90
39751;DHT22;37579;51.074;17.004;2022-12-29T03:43:54;23.50;58.00
39751;DHT22;37579;51.074;17.004;2022-12-29T03:46:20;23.50;58.00
39751;DHT22;37579;51.074;17.004;2022-12-29T03:48:45;23.50;58.10
39751;DHT22;37579;51.074;17.004;2022-12-29T03:51:12;23.50;58.00
39751;DHT22;37579;51.074;17.004;2022-12-29T03:53:38;23.50;57.90
39751;DHT22;37579;51.074;17.004;2022-12-29T03:56:04;23.50;57.90
39751;DHT22;37579;51.074;17.004;2022-12-29T03:58:32;23.50;57.90
39751;DHT22;37579;51.074;17.004;2022-12-29T04:01:06;23.50;57.90
39751;DHT22;37579;51.074;17.004;2022-12-29T04:03:35;23.50;57.80
39751;DHT22;37579;51.074;17.004;2022-12-29T04:06:01;23.50;57.80
39751;DHT22;37579;51.074;17.004;2022-12-29T04:08:33;23.50;57.80
39751;DHT22;37579;51.074;17.004;2022-12-29T04:10:59;23.50;57.80
39751;DHT22;37579;51.074;17.004;2022-12-29T04:13:27;23.50;57.80
39751;DHT22;37579;51.074;17.004;2022-12-29T04:15:53;23.40;57.80
39751;DHT22;37579;51.074;17.004;2022-12-29T04:18:19;23.50;57.80
39751;DHT22;37579;51.074;17.004;2022-12-29T04:20:45;23.50;57.80
39751;DHT22;37579;51.074;17.004;2022-12-29T04:23:28;23.40;57.80
39751;DHT22;37579;51.074;17.004;2022-12-29T04:25:54;23.50;57.80
39751;DHT22;37579;51.074;17.004;2022-12-29T04:28:20;23.50;57.80
39751;DHT22;37579;51.074;17.004;2022-12-29T04:30:52;23.50;57.80
39751;DHT22;37579;51.074;17.004;2022-12-29T04:33:29;23.40;57.80
39751;DHT22;37579;51.074;17.004;2022-12-29T04:35:55;23.50;57.70
39751;DHT22;37579;51.074;17.004;2022-12-29T04:38:23;23.40;57.60
39751;DHT22;37579;51.074;17.004;2022-12-29T04:40:50;23.40;57.80
39751;DHT22;37579;51.074;17.004;2022-12-29T04:43:18;23.40;57.90
39751;DHT22;37579;51.074;17.004;2022-12-29T04:46:13;23.40;57.90
39751;DHT22;37579;51.074;17.004;2022-12-29T04:48:50;23.40;57.90
39751;DHT22;37579;51.074;17.004;2022-12-29T04:51:29;23.40;57.80
39751;DHT22;37579;51.074;17.004;2022-12-29T04:53:55;23.40;57.70
39751;DHT22;37579;51.074;17.004;2022-12-29T04:56:22;23.40;57.70
39751;DHT22;37579;51.074;17.004;2022-12-29T04:58:48;23.40;57.70
39751;DHT22;37579;51.074;17.004;2022-12-29T05:01:14;23.40;57.70
39751;DHT22;37579;51.074;17.004;2022-12-29T05:03:40;23.40;57.60
39751;DHT22;37579;51.074;17.004;2022-12-29T05:06:06;23.40;57.70
39751;DHT22;37579;51.074;17.004;2022-12-29T05:08:32;23.40;57.70
39751;DHT22;37579;51.074;17.004;2022-12-29T05:11:00;23.40;57.70
39751;DHT22;37579;51.074;17.004;2022-12-29T05:13:26;23.40;57.70
39751;DHT22;37579;51.074;17.004;2022-12-29T05:15:53;23.40;57.40
39751;DHT22;37579;51.074;17.004;2022-12-29T05:18:20;23.60;56.90
39751;DHT22;37579;51.074;17.004;2022-12-29T05:20:47;23.70;56.40
39751;DHT22;37579;51.074;17.004;2022-12-29T05:23:14;23.80;56.10
39751;DHT22;37579;51.074;17.004;2022-12-29T05:25:43;23.90;55.90
39751;DHT22;37579;51.074;17.004;2022-12-29T05:28:19;23.90;55.70
39751;DHT22;37579;51.074;17.004;2022-12-29T05:30:49;23.90;55.50
39751;DHT22;37579;51.074;17.004;2022-12-29T05:33:18;24.00;55.40
39751;DHT22;37579;51.074;17.004;2022-12-29T05:35:44;24.00;55.30
39751;DHT22;37579;51.074;17.004;2022-12-29T05:38:11;24.00;55.20
39751;DHT22;37579;51.074;17.004;2022-12-29T05:40:37;24.00;55.10
39751;DHT22;37579;51.074;17.004;2022-12-29T05:43:08;24.00;55.00
39751;DHT22;37579;51.074;17.004;2022-12-29T05:45:55;24.10;55.00
39751;DHT22;37579;51.074;17.004;2022-12-29T05:48:34;24.10;55.00
39751;DHT22;37579;51.074;17.004;2022-12-29T05:51:13;24.10;55.00
39751;DHT22;37579;51.074;17.004;2022-12-29T05:53:51;24.10;54.90
39751;DHT22;37579;51.074;17.004;2022-12-29T05:56:17;24.10;54.90
39751;DHT22;37579;51.074;17.004;2022-12-29T05:58:43;24.10;55.00
39751;DHT22;37579;51.074;17.004;2022-12-29T06:01:09;24.10;55.00
39751;DHT22;37579;51.074;17.004;2022-12-29T06:03:35;24.10;55.00
39751;DHT22;37579;51.074;17.004;2022-12-29T06:06:01;24.10;55.10
39751;DHT22;37579;51.074;17.004;2022-12-29T06:08:28;24.10;55.00
39751;DHT22;37579;51.074;17.004;2022-12-29T06:10:53;24.10;55.00
39751;DHT22;37579;51.074;17.004;2022-12-29T06:13:19;24.10;55.00
39751;DHT22;37579;51.074;17.004;2022-12-29T06:15:48;24.10;55.10
39751;DHT22;37579;51.074;17.004;2022-12-29T06:18:15;24.10;55.10
39751;DHT22;37579;51.074;17.004;2022-12-29T06:20:41;24.10;55.10
39751;DHT22;37579;51.074;17.004;2022-12-29T06:23:07;24.10;55.10
39751;DHT22;37579;51.074;17.004;2022-12-29T06:25:33;24.10;55.00
39751;DHT22;37579;51.074;17.004;2022-12-29T06:28:02;24.10;55.00
39751;DHT22;37579;51.074;17.004;2022-12-29T06:30:28;24.10;55.00
39751;DHT22;37579;51.074;17.004;2022-12-29T06:32:54;24.10;55.10
39751;DHT22;37579;51.074;17.004;2022-12-29T06:35:21;24.10;55.10
39751;DHT22;37579;51.074;17.004;2022-12-29T06:37:51;24.00;55.10
39751;DHT22;37579;51.074;17.004;2022-12-29T06:40:17;24.00;55.20
39751;DHT22;37579;51.074;17.004;2022-12-29T06:43:21;24.00;55.20
39751;DHT22;37579;51.074;17.004;2022-12-29T06:46:06;24.00;55.20
39751;DHT22;37579;51.074;17.004;2022-12-29T06:48:31;24.00;55.30
39751;DHT22;37579;51.074;17.004;2022-12-29T06:50:57;24.00;55.30
39751;DHT22;37579;51.074;17.004;2022-12-29T06:53:23;24.00;55.40
39751;DHT22;37579;51.074;17.004;2022-12-29T06:55:49;24.00;55.30
39751;DHT22;37579;51.074;17.004;2022-12-29T06:58:15;24.10;55.40
39751;DHT22;37579;51.074;17.004;2022-12-29T07:00:41;24.00;55.20
39751;DHT22;37579;51.074;17.004;2022-12-29T07:03:07;24.10;55.30
39751;DHT22;37579;51.074;17.004;2022-12-29T07:05:33;24.00;55.30
39751;DHT22;37579;51.074;17.004;2022-12-29T07:07:59;24.00;55.40
39751;DHT22;37579;51.074;17.004;2022-12-29T07:10:25;24.00;55.40
39751;DHT22;37579;51.074;17.004;2022-12-29T07:12:51;24.00;56.00
39751;DHT22;37579;51.074;17.004;2022-12-29T07:15:17;24.00;55.40
39751;DHT22;37579;51.074;17.004;2022-12-29T07:17:43;24.00;55.30
39751;DHT22;37579;51.074;17.004;2022-12-29T07:20:09;24.00;55.30
39751;DHT22;37579;51.074;17.004;2022-12-29T07:22:35;24.00;55.20
39751;DHT22;37579;51.074;17.004;2022-12-29T07:25:01;24.00;55.20
39751;DHT22;37579;51.074;17.004;2022-12-29T07:27:28;24.00;55.20
39751;DHT22;37579;51.074;17.004;2022-12-29T07:29:54;24.10;55.10
39751;DHT22;37579;51.074;17.004;2022-12-29T07:32:20;24.00;55.10
39751;DHT22;37579;51.074;17.004;2022-12-29T07:34:46;24.00;55.10
39751;DHT22;37579;51.074;17.004;2022-12-29T07:37:14;23.90;55.20
39751;DHT22;37579;51.074;17.004;2022-12-29T07:39:40;23.90;55.20
39751;DHT22;37579;51.074;17.004;2022-12-29T07:42:06;24.00;55.30
39751;DHT22;37579;51.074;17.004;2022-12-29T07:44:42;23.90;55.20
39751;DHT22;37579;51.074;17.004;2022-12-29T07:47:15;24.00;55.20
39751;DHT22;37579;51.074;17.004;2022-12-29T07:49:41;24.00;55.10
39751;DHT22;37579;51.074;17.004;2022-12-29T07:52:07;24.10;55.10
39751;DHT22;37579;51.074;17.004;2022-12-29T07:54:33;24.00;55.00
39751;DHT22;37579;51.074;17.004;2022-12-29T07:56:58;24.10;54.90
39751;DHT22;37579;51.074;17.004;2022-12-29T07:59:26;24.10;54.90
39751;DHT22;37579;51.074;17.004;2022-12-29T08:01:52;24.10;54.80
39751;DHT22;37579;51.074;17.004;2022-12-29T08:04:17;22.40;36.20
39751;DHT22;37579;51.074;17.004;2022-12-29T08:06:43;21.70;43.60
39751;DHT22;37579;51.074;17.004;2022-12-29T08:09:11;22.40;47.80
39751;DHT22;37579;51.074;17.004;2022-12-29T08:11:37;22.90;48.70
39751;DHT22;37579;51.074;17.004;2022-12-29T08:14:03;23.20;48.70
39751;DHT22;37579;51.074;17.004;2022-12-29T08:16:29;23.40;48.70
39751;DHT22;37579;51.074;17.004;2022-12-29T08:18:56;23.50;48.90
39751;DHT22;37579;51.074;17.004;2022-12-29T08:21:21;23.60;49.10
39751;DHT22;37579;51.074;17.004;2022-12-29T08:23:47;23.60;49.70
39751;DHT22;37579;51.074;17.004;2022-12-29T08:26:13;23.70;50.50
39751;DHT22;37579;51.074;17.004;2022-12-29T08:28:39;23.70;51.30
39751;DHT22;37579;51.074;17.004;2022-12-29T08:31:05;23.80;51.90
39751;DHT22;37579;51.074;17.004;2022-12-29T08:33:50;23.80;52.70
39751;DHT22;37579;51.074;17.004;2022-12-29T08:36:16;23.80;53.40
39751;DHT22;37579;51.074;17.004;2022-12-29T08:38:41;23.90;54.00
39751;DHT22;37579;51.074;17.004;2022-12-29T08:41:07;23.90;54.50
39751;DHT22;37579;51.074;17.004;2022-12-29T08:43:33;23.90;55.20
39751;DHT22;37579;51.074;17.004;2022-12-29T08:45:59;23.90;55.70
39751;DHT22;37579;51.074;17.004;2022-12-29T08:48:26;23.90;56.20
39751;DHT22;37579;51.074;17.004;2022-12-29T08:50:51;23.90;56.50
39751;DHT22;37579;51.074;17.004;2022-12-29T08:53:18;23.90;56.70
39751;DHT22;37579;51.074;17.004;2022-12-29T08:55:54;23.90;56.60
39751;DHT22;37579;51.074;17.004;2022-12-29T08:58:20;23.90;56.50
39751;DHT22;37579;51.074;17.004;2022-12-29T09:00:45;23.90;56.40
39751;DHT22;37579;51.074;17.004;2022-12-29T09:03:11;24.00;56.40
39751;DHT22;37579;51.074;17.004;2022-12-29T09:05:37;24.00;56.30
39751;DHT22;37579;51.074;17.004;2022-12-29T09:08:03;24.00;56.30
39751;DHT22;37579;51.074;17.004;2022-12-29T09:10:30;24.00;56.30
39751;DHT22;37579;51.074;17.004;2022-12-29T09:12:56;24.00;56.30
39751;DHT22;37579;51.074;17.004;2022-12-29T09:15:22;24.00;56.20
39751;DHT22;37579;51.074;17.004;2022-12-29T09:17:47;24.00;56.10
39751;DHT22;37579;51.074;17.004;2022-12-29T09:20:16;24.00;55.90
39751;DHT22;37579;51.074;17.004;2022-12-29T09:22:43;24.00;56.10
39751;DHT22;37579;51.074;17.004;2022-12-29T09:25:10;24.00;56.10
39751;DHT22;37579;51.074;17.004;2022-12-29T09:27:36;24.00;56.10
39751;DHT22;37579;51.074;17.004;2022-12-29T09:30:04;24.00;56.10
39751;DHT22;37579;51.074;17.004;2022-12-29T09:32:31;24.00;56.10
39751;DHT22;37579;51.074;17.004;2022-12-29T09:34:57;24.00;56.10
39751;DHT22;37579;51.074;17.004;2022-12-29T09:37:23;24.00;56.10
39751;DHT22;37579;51.074;17.004;2022-12-29T09:39:49;24.00;55.90
39751;DHT22;37579;51.074;17.004;2022-12-29T09:45:15;24.10;55.70
39751;DHT22;37579;51.074;17.004;2022-12-29T09:47:42;24.10;55.60
39751;DHT22;37579;51.074;17.004;2022-12-29T09:50:20;24.10;55.50
39751;DHT22;37579;51.074;17.004;2022-12-29T09:53:01;24.10;55.50
39751;DHT22;37579;51.074;17.004;2022-12-29T09:55:40;24.00;55.50
39751;DHT22;37579;51.074;17.004;2022-12-29T09:58:36;24.00;55.70
39751;DHT22;37579;51.074;17.004;2022-12-29T10:02:11;24.00;55.80
39751;DHT22;37579;51.074;17.004;2022-12-29T10:04:07;24.00;55.70
39751;DHT22;37579;51.074;17.004;2022-12-29T10:17:01;24.00;55.60
39751;DHT22;37579;51.074;17.004;2022-12-29T10:20:01;24.10;55.60
39751;DHT22;37579;51.074;17.004;2022-12-29T10:25:20;24.10;55.50
39751;DHT22;37579;51.074;17.004;2022-12-29T10:27:49;24.10;55.50
39751;DHT22;37579;51.074;17.004;2022-12-29T10:30:16;24.10;55.50
39751;DHT22;37579;51.074;17.004;2022-12-29T10:35:19;24.10;55.30
39751;DHT22;37579;51.074;17.004;2022-12-29T10:40:36;24.00;55.30
39751;DHT22;37579;51.074;17.004;2022-12-29T10:43:20;24.00;55.20
39751;DHT22;37579;51.074;17.004;2022-12-29T10:45:48;23.90;55.20
39751;DHT22;37579;51.074;17.004;2022-12-29T10:48:21;23.90;55.10
39751;DHT22;37579;51.074;17.004;2022-12-29T10:50:49;23.90;55.10
39751;DHT22;37579;51.074;17.004;2022-12-29T10:53:20;23.90;55.00
39751;DHT22;37579;51.074;17.004;2022-12-29T10:55:48;23.90;54.90
39751;DHT22;37579;51.074;17.004;2022-12-29T10:58:15;23.90;54.90
39751;DHT22;37579;51.074;17.004;2022-12-29T11:00:42;23.90;54.90
39751;DHT22;37579;51.074;17.004;2022-12-29T11:06:26;24.00;54.70
39751;DHT22;37579;51.074;17.004;2022-12-29T11:09:16;24.00;54.90
39751;DHT22;37579;51.074;17.004;2022-12-29T11:11:44;23.90;55.60
39751;DHT22;37579;51.074;17.004;2022-12-29T11:14:16;24.10;56.10
39751;DHT22;37579;51.074;17.004;2022-12-29T11:16:43;24.00;55.90
39751;DHT22;37579;51.074;17.004;2022-12-29T11:19:26;24.00;55.70
39751;DHT22;37579;51.074;17.004;2022-12-29T11:21:53;24.00;55.60
39751;DHT22;37579;51.074;17.004;2022-12-29T11:24:27;24.00;55.60
39751;DHT22;37579;51.074;17.004;2022-12-29T11:27:15;24.00;55.70
39751;DHT22;37579;51.074;17.004;2022-12-29T11:29:42;24.00;55.60
39751;DHT22;37579;51.074;17.004;2022-12-29T11:32:12;24.00;55.50
39751;DHT22;37579;51.074;17.004;2022-12-29T11:34:38;24.00;55.50
39751;DHT22;37579;51.074;17.004;2022-12-29T11:37:10;24.00;55.40
39751;DHT22;37579;51.074;17.004;2022-12-29T11:42:40;24.10;55.30
39751;DHT22;37579;51.074;17.004;2022-12-29T11:45:20;24.10;55.30
39751;DHT22;37579;51.074;17.004;2022-12-29T11:47:57;24.10;55.20
39751;DHT22;37579;51.074;17.004;2022-12-29T11:50:29;24.00;55.20
39751;DHT22;37579;51.074;17.004;2022-12-29T11:53:20;24.10;55.00
39751;DHT22;37579;51.074;17.004;2022-12-29T11:55:53;23.90;55.10
39751;DHT22;37579;51.074;17.004;2022-12-29T11:58:20;23.90;55.20
39751;DHT22;37579;51.074;17.004;2022-12-29T12:00:46;23.90;55.40
39751;DHT22;37579;51.074;17.004;2022-12-29T12:03:23;23.90;55.40
39751;DHT22;37579;51.074;17.004;2022-12-29T12:05:58;23.90;55.40
39751;DHT22;37579;51.074;17.004;2022-12-29T12:11:10;23.90;55.70
39751;DHT22;37579;51.074;17.004;2022-12-29T12:14:11;23.90;55.80
39751;DHT22;37579;51.074;17.004;2022-12-29T12:17:03;23.90;55.80
39751;DHT22;37579;51.074;17.004;2022-12-29T12:22:03;23.90;55.90
39751;DHT22;37579;51.074;17.004;2022-12-29T12:24:50;23.90;55.90
39751;DHT22;37579;51.074;17.004;2022-12-29T12:30:11;23.90;56.00
39751;DHT22;37579;51.074;17.004;2022-12-29T12:32:44;23.80;56.10
39751;DHT22;37579;51.074;17.004;2022-12-29T12:35:22;23.90;55.80
39751;DHT22;37579;51.074;17.004;2022-12-29T12:37:56;23.90;56.00
39751;DHT22;37579;51.074;17.004;2022-12-29T12:52:16;23.90;56.30
39751;DHT22;37579;51.074;17.004;2022-12-29T12:57:32;23.90;55.60
39751;DHT22;37579;51.074;17.004;2022-12-29T13:00:09;23.90;55.30
39751;DHT22;37579;51.074;17.004;2022-12-29T13:02:53;23.90;55.30
39751;DHT22;37579;51.074;17.004;2022-12-29T13:10:41;23.90;55.80
39751;DHT22;37579;51.074;17.004;2022-12-29T13:18:37;23.80;55.90
39751;DHT22;37579;51.074;17.004;2022-12-29T13:30:17;23.90;56.00
39751;DHT22;37579;51.074;17.004;2022-12-29T13:35:51;24.00;56.10
39751;DHT22;37579;51.074;17.004;2022-12-29T13:40:55;24.00;56.30
39751;DHT22;37579;51.074;17.004;2022-12-29T13:43:22;24.00;56.30
39751;DHT22;37579;51.074;17.004;2022-12-29T13:46:08;24.00;56.30
39751;DHT22;37579;51.074;17.004;2022-12-29T13:49:20;24.00;56.70
39751;DHT22;37579;51.074;17.004;2022-12-29T13:51:26;24.00;56.90
39751;DHT22;37579;51.074;17.004;2022-12-29T13:56:52;24.00;57.60
39751;DHT22;37579;51.074;17.004;2022-12-29T13:59:33;24.00;57.80
39751;DHT22;37579;51.074;17.004;2022-12-29T14:05:02;24.00;58.10
39751;DHT22;37579;51.074;17.004;2022-12-29T14:07:29;24.10;58.20
39751;DHT22;37579;51.074;17.004;2022-12-29T14:10:01;24.00;58.20
39751;DHT22;37579;51.074;17.004;2022-12-29T14:12:39;24.00;58.30
39751;DHT22;37579;51.074;17.004;2022-12-29T14:15:15;24.10;58.40
39751;DHT22;37579;51.074;17.004;2022-12-29T14:18:21;24.10;58.50
39751;DHT22;37579;51.074;17.004;2022-12-29T14:20:56;24.00;58.40
39751;DHT22;37579;51.074;17.004;2022-12-29T14:23:35;24.00;58.40
39751;DHT22;37579;51.074;17.004;2022-12-29T14:28:36;24.10;58.30
39751;DHT22;37579;51.074;17.004;2022-12-29T14:31:49;24.10;58.10
39751;DHT22;37579;51.074;17.004;2022-12-29T14:44:48;24.00;58.10
39751;DHT22;37579;51.074;17.004;2022-12-29T14:50:03;24.00;58.30
39751;DHT22;37579;51.074;17.004;2022-12-29T14:52:30;24.00;58.30
39751;DHT22;37579;51.074;17.004;2022-12-29T14:57:42;24.00;57.90
39751;DHT22;37579;51.074;17.004;2022-12-29T15:02:40;24.00;57.80
39751;DHT22;37579;51.074;17.004;2022-12-29T15:05:45;23.90;57.70
39751;DHT22;37579;51.074;17.004;2022-12-29T15:08:13;23.90;57.80
39751;DHT22;37579;51.074;17.004;2022-12-29T15:11:04;23.90;57.80
39751;DHT22;37579;51.074;17.004;2022-12-29T15:13:40;23.90;57.70
39751;DHT22;37579;51.074;17.004;2022-12-29T15:16:31;23.90;57.80
39751;DHT22;37579;51.074;17.004;2022-12-29T15:18:58;23.90;57.90
39751;DHT22;37579;51.074;17.004;2022-12-29T15:21:30;24.00;57.80
39751;DHT22;37579;51.074;17.004;2022-12-29T15:23:56;24.10;57.70
39751;DHT22;37579;51.074;17.004;2022-12-29T15:26:22;24.10;57.60
39751;DHT22;37579;51.074;17.004;2022-12-29T15:28:50;24.10;57.40
39751;DHT22;37579;51.074;17.004;2022-12-29T15:31:24;24.10;57.30
39751;DHT22;37579;51.074;17.004;2022-12-29T15:33:53;24.10;57.20
39751;DHT22;37579;51.074;17.004;2022-12-29T15:36:27;24.10;57.10
39751;DHT22;37579;51.074;17.004;2022-12-29T15:38:54;24.10;57.10
39751;DHT22;37579;51.074;17.004;2022-12-29T15:41:53;24.20;57.10
39751;DHT22;37579;51.074;17.004;2022-12-29T15:44:54;24.20;56.90
39751;DHT22;37579;51.074;17.004;2022-12-29T15:47:25;24.30;56.70
39751;DHT22;37579;51.074;17.004;2022-12-29T15:50:02;24.30;56.60
39751;DHT22;37579;51.074;17.004;2022-12-29T15:52:29;24.30;56.40
39751;DHT22;37579;51.074;17.004;2022-12-29T15:54:58;24.40;56.30
39751;DHT22;37579;51.074;17.004;2022-12-29T15:57:36;24.40;56.30
39751;DHT22;37579;51.074;17.004;2022-12-29T16:00:17;24.40;56.20
39751;DHT22;37579;51.074;17.004;2022-12-29T16:02:46;24.40;56.10
39751;DHT22;37579;51.074;17.004;2022-12-29T16:05:17;24.40;56.00
39751;DHT22;37579;51.074;17.004;2022-12-29T16:07:55;24.40;56.00
39751;DHT22;37579;51.074;17.004;2022-12-29T16:13:14;24.40;55.80
39751;DHT22;37579;51.074;17.004;2022-12-29T16:15:44;24.40;55.80
39751;DHT22;37579;51.074;17.004;2022-12-29T16:18:36;24.40;55.80
39751;DHT22;37579;51.074;17.004;2022-12-29T16:21:29;24.40;55.80
39751;DHT22;37579;51.074;17.004;2022-12-29T16:24:02;24.40;55.80
39751;DHT22;37579;51.074;17.004;2022-12-29T16:26:30;24.40;55.90
39751;DHT22;37579;51.074;17.004;2022-12-29T16:28:58;24.40;55.90
39751;DHT22;37579;51.074;17.004;2022-12-29T16:37:34;24.40;55.90
39751;DHT22;37579;51.074;17.004;2022-12-29T16:50:30;24.70;55.70
39751;DHT22;37579;51.074;17.004;2022-12-29T16:52:56;24.70;55.60
39751;DHT22;37579;51.074;17.004;2022-12-29T16:55:23;24.80;55.50
39751;DHT22;37579;51.074;17.004;2022-12-29T16:57:51;24.80;55.50
39751;DHT22;37579;51.074;17.004;2022-12-29T17:00:24;24.80;55.60
39751;DHT22;37579;51.074;17.004;2022-12-29T17:02:53;24.80;55.50
39751;DHT22;37579;51.074;17.004;2022-12-29T17:05:20;24.80;55.40
39751;DHT22;37579;51.074;17.004;2022-12-29T17:07:46;24.90;55.40
39751;DHT22;37579;51.074;17.004;2022-12-29T17:10:13;24.90;55.10
39751;DHT22;37579;51.074;17.004;2022-12-29T17:12:42;24.90;55.20
39751;DHT22;37579;51.074;17.004;2022-12-29T17:15:19;24.90;55.40
39751;DHT22;37579;51.074;17.004;2022-12-29T17:17:47;24.80;55.60
39751;DHT22;37579;51.074;17.004;2022-12-29T17:20:28;24.80;55.50
39751;DHT22;37579;51.074;17.004;2022-12-29T17:22:56;24.70;55.60
39751;DHT22;37579;51.074;17.004;2022-12-29T17:25:25;24.70;55.60
39751;DHT22;37579;51.074;17.004;2022-12-29T17:28:19;24.70;55.50
39751;DHT22;37579;51.074;17.004;2022-12-29T17:30:45;24.80;55.50
39751;DHT22;37579;51.074;17.004;2022-12-29T17:33:16;24.70;55.60
39751;DHT22;37579;51.074;17.004;2022-12-29T17:35:43;24.70;55.70
39751;DHT22;37579;51.074;17.004;2022-12-29T17:38:41;24.80;56.80
39751;DHT22;37579;51.074;17.004;2022-12-29T17:41:13;25.10;57.50
39751;DHT22;37579;51.074;17.004;2022-12-29T17:43:39;24.80;57.00
39751;DHT22;37579;51.074;17.004;2022-12-29T17:46:06;24.60;56.00
39751;DHT22;37579;51.074;17.004;2022-12-29T17:48:33;24.60;56.10
39751;DHT22;37579;51.074;17.004;2022-12-29T17:50:58;24.60;56.10
39751;DHT22;37579;51.074;17.004;2022-12-29T17:53:29;24.60;56.10
39751;DHT22;37579;51.074;17.004;2022-12-29T17:55:55;24.60;56.00
39751;DHT22;37579;51.074;17.004;2022-12-29T17:58:28;24.60;56.10
39751;DHT22;37579;51.074;17.004;2022-12-29T18:00:57;24.60;56.10
39751;DHT22;37579;51.074;17.004;2022-12-29T18:03:30;24.60;56.30
39751;DHT22;37579;51.074;17.004;2022-12-29T18:05:56;24.50;56.20
39751;DHT22;37579;51.074;17.004;2022-12-29T18:08:22;24.60;56.40
39751;DHT22;37579;51.074;17.004;2022-12-29T18:10:50;24.60;56.20
39751;DHT22;37579;51.074;17.004;2022-12-29T18:13:24;24.50;56.00
39751;DHT22;37579;51.074;17.004;2022-12-29T18:15:51;24.50;56.10
39751;DHT22;37579;51.074;17.004;2022-12-29T18:18:19;24.50;56.30